Weather at Carson Airport

Public forecast

Using degrees Fahrenheit for public forecast. Weather courtesy of forecast.io.

Current aviation weather report (METAR) for Carson Airport

Report is more than 2 hours old.

2024/06/24 21:15 (retrieved 5 hours ago)

KCXP 242115Z AUTO VRB06G25KT 10SM CLR 32/07 A3007 RMK AO2

Aviation forecast (TAF) for Carson Airport

Forecast is more than 6 hours old.

2024/06/24 18:30 (retrieved 8 hours ago)

TAF KCXP 241727Z 2418/2518 23010G20KT P6SM FEW090 FM242000 26015G25KT P6SM FEW090 FM250300 28011G17KT P6SM FEW250 FM250700 VRB04KT P6SM SCT140 BKN180